KCNY/CNY METAR and TAF weather

Enter ICAO airport designator
Station Type Date Time Source
KCNY METAR 2021/03/02 12:53 UTC NOAA

KCNY 021253Z AUTO 00000KT 10SM CLR M07/M17 A3024 RMK AO2 SLP258 T10671172


Station Type Date Time Source
KCNY Decoded METAR 2021/03/02 12:53 UTC NOAA

MOAB CANYONLANDS FIELD, UT, United States (KCNY) 38-46N 109-45W 1390M
Mar 02, 2021 - 07:53 AM EST / 2021.03.02 1253 UTC
Wind: Calm:0
Visibility: 10 mile(s):0
Sky conditions: clear
Temperature: 19.9 F (-6.7 C)
Dew Point: 1.0 F (-17.2 C)
Relative Humidity: 42%
Pressure (altimeter): 30.24 in. Hg (1024 hPa)
ob: KCNY 021253Z AUTO 00000KT 10SM CLR M07/M17 A3024 RMK AO2 SLP258 T10671172
cycle: 13

Station Type Date Time Source
KCNY TAF 2021/03/02 12:33 UTC NOAA

TAF KCNY 021130Z 0212/0312 VRB03KT P6SM SKC

Example: see airport list